createdAt,value
2022-10-31T00:01:21.456Z,16.17
2022-10-31T00:03:48.704Z,14.20
2022-10-31T00:06:19.047Z,17.43
2022-10-31T00:08:54.032Z,16.30
2022-10-31T00:11:21.212Z,19.00
2022-10-31T00:13:48.064Z,20.50
2022-10-31T00:16:23.047Z,15.77
2022-10-31T00:18:54.630Z,18.50
2022-10-31T00:21:22.428Z,16.03
2022-10-31T00:23:49.613Z,13.50
2022-10-31T00:26:16.812Z,18.10
2022-10-31T00:28:43.664Z,21.27
2022-10-31T00:31:12.529Z,19.50
2022-10-31T00:33:40.938Z,18.30
2022-10-31T00:36:08.957Z,16.00
2022-10-31T00:38:35.778Z,23.03
2022-10-31T00:41:02.589Z,27.57
2022-10-31T00:43:29.420Z,29.58
2022-10-31T00:45:56.193Z,24.07
2022-10-31T00:48:23.009Z,26.10
2022-10-31T00:50:49.805Z,19.57
2022-10-31T00:53:16.573Z,28.77
2022-10-31T00:55:43.417Z,25.63
2022-10-31T00:58:10.431Z,22.77
2022-10-31T01:00:37.244Z,24.90
2022-10-31T01:03:04.106Z,19.40
2022-10-31T01:05:30.914Z,20.87
2022-10-31T01:07:57.749Z,27.87
2022-10-31T01:10:24.710Z,21.50
2022-10-31T01:12:51.961Z,20.35
2022-10-31T01:15:22.517Z,20.37
2022-10-31T01:17:49.861Z,21.60
2022-10-31T01:20:17.860Z,20.67
2022-10-31T01:22:44.725Z,25.37
2022-10-31T01:25:11.900Z,16.00
2022-10-31T01:27:38.689Z,25.00
2022-10-31T01:30:06.559Z,22.30
2022-10-31T01:32:33.473Z,25.65
2022-10-31T01:35:00.313Z,23.10
2022-10-31T01:37:27.218Z,28.83
2022-10-31T01:39:54.025Z,24.70
2022-10-31T01:42:22.787Z,22.20
2022-10-31T01:44:59.685Z,28.10
2022-10-31T01:47:37.115Z,25.67
2022-10-31T01:50:10.557Z,21.50
2022-10-31T01:52:45.562Z,36.80
2022-10-31T01:55:30.339Z,24.33
2022-10-31T01:58:04.930Z,20.70
2022-10-31T02:00:31.858Z,22.70
2022-10-31T02:03:00.522Z,25.30
2022-10-31T02:05:30.754Z,22.50
2022-10-31T02:08:09.255Z,24.17
2022-10-31T02:10:37.940Z,20.73
2022-10-31T02:13:07.050Z,21.00
2022-10-31T02:15:34.759Z,21.10
2022-10-31T02:18:02.439Z,21.25
2022-10-31T02:20:53.881Z,18.77
2022-10-31T02:23:50.411Z,20.30
2022-10-31T02:26:57.951Z,20.25
2022-10-31T02:30:01.322Z,24.80
2022-10-31T02:32:51.018Z,22.27
2022-10-31T02:35:45.070Z,18.85
2022-10-31T02:38:32.910Z,20.00
2022-10-31T02:41:30.562Z,24.35
2022-10-31T02:44:31.147Z,21.63
2022-10-31T02:47:04.846Z,22.67
2022-10-31T02:49:46.519Z,26.23
2022-10-31T02:52:20.962Z,20.70
2022-10-31T02:54:48.877Z,26.42
2022-10-31T02:57:20.496Z,20.15
2022-10-31T02:59:55.272Z,20.80
2022-10-31T03:02:43.547Z,19.15
2022-10-31T03:05:10.513Z,20.30
2022-10-31T03:08:06.249Z,19.92
2022-10-31T03:10:38.614Z,18.60
2022-10-31T03:13:20.965Z,23.63
2022-10-31T03:15:52.644Z,22.85
2022-10-31T03:18:30.550Z,24.03
2022-10-31T03:21:13.507Z,23.80
2022-10-31T03:23:41.263Z,25.90
2022-10-31T03:26:10.548Z,21.53
2022-10-31T03:29:02.856Z,22.27
2022-10-31T03:31:38.701Z,24.60
2022-10-31T03:34:08.632Z,18.77
2022-10-31T03:36:38.534Z,20.63
2022-10-31T03:39:08.517Z,35.15
2022-10-31T03:41:41.400Z,28.05
2022-10-31T03:44:14.469Z,20.52
2022-10-31T03:46:42.649Z,25.43
2022-10-31T03:49:10.453Z,26.65
2022-10-31T03:51:58.142Z,21.00
2022-10-31T03:54:44.772Z,26.33
2022-10-31T03:57:50.449Z,28.17
2022-10-31T04:00:18.107Z,35.08
2022-10-31T04:02:53.686Z,30.25
2022-10-31T04:05:21.590Z,30.52
2022-10-31T04:07:52.841Z,31.53
2022-10-31T04:10:20.208Z,21.83
2022-10-31T04:12:59.067Z,24.93
2022-10-31T04:15:27.691Z,24.65
2022-10-31T04:17:58.261Z,19.77
2022-10-31T04:20:33.914Z,23.88
2022-10-31T04:23:01.870Z,25.60
2022-10-31T04:25:28.665Z,26.80
2022-10-31T04:27:55.789Z,20.60
2022-10-31T04:30:22.957Z,24.23
2022-10-31T04:32:49.748Z,26.83
2022-10-31T04:35:17.169Z,23.48
2022-10-31T04:37:44.043Z,25.07
2022-10-31T04:40:11.505Z,23.17
2022-10-31T04:42:38.285Z,31.75
2022-10-31T04:45:05.589Z,26.70
2022-10-31T04:47:34.331Z,26.40
2022-10-31T04:50:01.946Z,29.77
2022-10-31T04:52:29.095Z,34.38
2022-10-31T04:54:55.903Z,37.58
2022-10-31T04:57:22.711Z,32.35
2022-10-31T04:59:49.467Z,35.03
2022-10-31T05:02:16.346Z,30.67
2022-10-31T05:04:43.239Z,31.10
2022-10-31T05:07:10.007Z,33.78
2022-10-31T05:09:36.787Z,27.42
2022-10-31T05:12:03.655Z,33.37
2022-10-31T05:14:30.498Z,34.90
2022-10-31T05:16:57.289Z,28.15
2022-10-31T05:19:24.048Z,33.60
2022-10-31T05:21:51.057Z,27.55
2022-10-31T05:24:17.812Z,32.85
2022-10-31T05:26:44.570Z,37.08
2022-10-31T05:29:11.352Z,36.20
2022-10-31T05:31:38.165Z,54.47
2022-10-31T05:34:05.043Z,42.58
2022-10-31T05:36:31.816Z,26.83
2022-10-31T05:38:58.731Z,29.02
2022-10-31T05:41:25.516Z,25.15
2022-10-31T05:43:52.302Z,25.75
2022-10-31T05:46:19.092Z,33.97
2022-10-31T05:48:45.894Z,38.28
2022-10-31T05:51:13.687Z,35.78
2022-10-31T05:53:40.491Z,35.83
2022-10-31T05:56:07.639Z,36.63
2022-10-31T05:58:34.511Z,38.40
2022-10-31T06:01:01.392Z,33.78
2022-10-31T06:03:28.190Z,27.63
2022-10-31T06:05:55.462Z,38.03
2022-10-31T06:08:22.416Z,33.65
2022-10-31T06:10:49.223Z,33.80
2022-10-31T06:13:16.029Z,37.30
2022-10-31T06:15:43.398Z,55.25
2022-10-31T06:18:10.324Z,34.72
2022-10-31T06:20:37.244Z,40.58
2022-10-31T06:23:05.135Z,32.83
2022-10-31T06:25:32.315Z,40.15
2022-10-31T06:27:59.230Z,26.98
2022-10-31T06:30:26.544Z,31.98
2022-10-31T06:32:53.452Z,29.92
2022-10-31T06:35:20.464Z,36.08
2022-10-31T06:37:54.581Z,35.28
2022-10-31T06:40:22.105Z,25.88
2022-10-31T06:42:56.436Z,30.35
2022-10-31T06:45:23.384Z,23.33
2022-10-31T06:48:16.168Z,24.65
2022-10-31T06:50:41.314Z,35.37
2022-10-31T06:55:37.049Z,21.33
2022-10-31T06:58:04.792Z,20.57
2022-10-31T07:00:32.350Z,19.10
2022-10-31T07:03:07.871Z,19.50
2022-10-31T07:05:34.660Z,16.73
2022-10-31T07:08:04.679Z,15.70
2022-10-31T07:10:35.770Z,16.27
2022-10-31T07:13:08.040Z,14.07
2022-10-31T07:15:37.192Z,15.88
2022-10-31T07:18:06.319Z,16.77
2022-10-31T07:20:33.896Z,13.77
2022-10-31T07:23:02.173Z,17.85
2022-10-31T07:25:29.298Z,14.35
2022-10-31T07:27:56.719Z,21.67
2022-10-31T07:30:23.678Z,23.30
2022-10-31T07:32:51.674Z,26.50
2022-10-31T07:35:23.556Z,30.20
2022-10-31T07:37:50.928Z,25.83
2022-10-31T07:40:18.770Z,21.48
2022-10-31T07:42:47.794Z,24.40
2022-10-31T07:45:18.241Z,24.63
2022-10-31T07:47:49.346Z,34.42
2022-10-31T07:50:18.470Z,47.63
2022-10-31T07:52:45.324Z,48.20
2022-10-31T07:55:12.541Z,27.60
2022-10-31T07:57:39.569Z,20.45
2022-10-31T08:00:08.710Z,18.37
2022-10-31T08:02:35.549Z,21.30
2022-10-31T08:05:05.222Z,23.50
2022-10-31T08:07:37.815Z,22.00
2022-10-31T08:10:05.519Z,29.43
2022-10-31T08:12:32.436Z,54.57
2022-10-31T08:14:59.221Z,46.17
2022-10-31T08:17:26.105Z,21.07
2022-10-31T08:19:52.859Z,17.83
2022-10-31T08:22:19.638Z,19.57
2022-10-31T08:24:46.495Z,16.47
2022-10-31T08:27:13.291Z,16.75
2022-10-31T08:29:40.065Z,19.20
2022-10-31T08:32:06.885Z,21.70
2022-10-31T08:34:33.828Z,19.27
2022-10-31T08:37:00.573Z,18.87
2022-10-31T08:39:27.326Z,17.93
2022-10-31T08:41:54.110Z,21.03
2022-10-31T08:44:20.984Z,17.30
2022-10-31T08:46:47.883Z,18.53
2022-10-31T08:49:14.696Z,23.13
2022-10-31T08:51:41.464Z,16.80
2022-10-31T08:54:08.277Z,23.57
2022-10-31T08:56:35.069Z,23.30
2022-10-31T08:59:02.349Z,20.17
2022-10-31T09:01:29.344Z,16.83
2022-10-31T09:03:56.252Z,17.50
2022-10-31T09:06:23.578Z,26.93
2022-10-31T09:08:50.569Z,19.57
2022-10-31T09:11:17.388Z,21.00
2022-10-31T09:13:44.178Z,23.43
2022-10-31T09:16:10.959Z,21.40
2022-10-31T09:18:37.738Z,17.73
2022-10-31T09:21:04.800Z,22.60
2022-10-31T09:23:32.107Z,27.77
2022-10-31T09:26:01.434Z,20.70
2022-10-31T09:28:28.297Z,19.43
2022-10-31T09:30:55.477Z,26.47
2022-10-31T09:33:22.755Z,22.37
2022-10-31T09:35:49.987Z,24.30
2022-10-31T09:38:20.243Z,22.23
2022-10-31T09:41:23.969Z,22.90
2022-10-31T09:44:14.223Z,20.93
2022-10-31T09:47:12.843Z,20.73
2022-10-31T09:50:27.721Z,23.50
2022-10-31T09:53:33.007Z,19.10
2022-10-31T09:56:00.727Z,18.93
2022-10-31T09:58:32.988Z,20.83
2022-10-31T10:01:04.289Z,18.40
2022-10-31T10:03:43.068Z,17.37
2022-10-31T10:06:24.019Z,19.83
2022-10-31T10:08:50.938Z,19.33
2022-10-31T10:11:50.105Z,18.77
2022-10-31T10:14:48.861Z,18.00
2022-10-31T10:17:52.220Z,24.73
2022-10-31T10:20:30.714Z,21.80
2022-10-31T10:23:18.514Z,22.40
2022-10-31T10:25:50.235Z,21.13
2022-10-31T10:28:30.046Z,23.20
2022-10-31T10:30:59.750Z,23.40
2022-10-31T10:33:41.222Z,20.67
2022-10-31T10:36:15.969Z,20.33
2022-10-31T10:39:17.001Z,19.83
2022-10-31T10:42:08.515Z,21.10
2022-10-31T10:44:59.449Z,20.63
2022-10-31T10:47:39.733Z,16.20
2022-10-31T10:50:21.384Z,21.80
2022-10-31T10:52:58.953Z,20.43
2022-10-31T10:55:59.359Z,21.43
2022-10-31T10:58:26.189Z,17.00
2022-10-31T11:00:56.140Z,15.60
2022-10-31T11:03:23.056Z,19.23
2022-10-31T11:05:55.278Z,15.73
2022-10-31T11:08:33.207Z,19.77
2022-10-31T11:11:05.263Z,20.10
2022-10-31T11:13:33.836Z,24.77
2022-10-31T11:16:02.708Z,18.37
2022-10-31T11:18:33.104Z,16.53
2022-10-31T11:21:03.828Z,24.77
2022-10-31T11:23:31.482Z,25.63
2022-10-31T11:26:03.968Z,38.80
2022-10-31T11:28:33.372Z,23.33
2022-10-31T11:31:01.928Z,23.80
2022-10-31T11:33:39.089Z,23.07
2022-10-31T11:36:22.261Z,27.27
2022-10-31T11:38:50.459Z,24.87
2022-10-31T11:41:25.118Z,21.27
2022-10-31T11:43:58.388Z,25.07
2022-10-31T11:46:45.115Z,25.50
2022-10-31T11:49:27.019Z,26.43
2022-10-31T11:51:57.550Z,22.10
2022-10-31T11:54:33.892Z,27.63
2022-10-31T11:57:01.111Z,17.80
2022-10-31T11:59:33.021Z,19.03
2022-10-31T12:02:01.975Z,18.07
2022-10-31T12:04:59.253Z,19.87
2022-10-31T12:07:26.196Z,20.93
2022-10-31T12:09:53.102Z,18.07
2022-10-31T12:12:36.992Z,18.10
2022-10-31T12:15:31.084Z,17.60
2022-10-31T12:18:09.920Z,16.70
2022-10-31T12:21:05.339Z,21.90
2022-10-31T12:23:50.107Z,20.30
2022-10-31T12:26:27.251Z,17.10
2022-10-31T12:29:19.428Z,23.17
2022-10-31T12:32:23.629Z,18.80
2022-10-31T12:35:06.058Z,23.60
2022-10-31T12:38:03.862Z,18.13
2022-10-31T12:40:52.626Z,22.67
2022-10-31T12:43:36.358Z,16.40
2022-10-31T12:46:06.310Z,17.50
2022-10-31T12:49:02.024Z,12.70
2022-10-31T12:51:47.305Z,13.00
2022-10-31T12:54:19.928Z,17.63
2022-10-31T12:56:58.762Z,13.83
2022-10-31T12:59:31.807Z,15.93
2022-10-31T13:02:17.658Z,17.27
2022-10-31T13:04:59.378Z,20.60
2022-10-31T13:07:50.377Z,26.43
2022-10-31T13:10:20.323Z,20.93
2022-10-31T13:12:52.546Z,14.63
2022-10-31T13:15:26.355Z,18.03
2022-10-31T13:17:57.604Z,18.83
2022-10-31T13:20:27.118Z,19.60
2022-10-31T13:23:48.522Z,19.80
2022-10-31T13:26:14.870Z,14.40
2022-10-31T13:28:53.712Z,15.07
2022-10-31T13:31:21.234Z,14.07
2022-10-31T13:33:57.132Z,14.87
2022-10-31T13:36:27.117Z,18.97
2022-10-31T13:39:21.329Z,21.47
2022-10-31T13:42:00.597Z,24.67
2022-10-31T13:44:35.910Z,20.97
2022-10-31T13:47:21.101Z,21.63
2022-10-31T13:49:48.253Z,20.23
2022-10-31T13:52:22.770Z,26.00
2022-10-31T13:54:56.907Z,19.23
2022-10-31T13:57:55.359Z,22.80
2022-10-31T14:00:22.246Z,22.13
2022-10-31T14:02:51.872Z,22.30
2022-10-31T14:05:21.527Z,21.93
2022-10-31T14:07:48.930Z,21.63
2022-10-31T14:10:38.193Z,20.67
2022-10-31T14:13:44.090Z,21.70
2022-10-31T14:16:26.654Z,20.03
2022-10-31T14:19:17.575Z,19.73
2022-10-31T14:21:46.906Z,18.40
2022-10-31T14:24:26.067Z,18.80
2022-10-31T14:27:24.955Z,20.10
2022-10-31T14:29:51.773Z,22.47
2022-10-31T14:32:24.869Z,23.83
2022-10-31T14:34:51.621Z,27.00
2022-10-31T14:37:31.881Z,25.40
2022-10-31T14:40:25.397Z,23.07
2022-10-31T14:43:01.293Z,21.47
2022-10-31T14:45:32.749Z,24.10
2022-10-31T14:48:17.992Z,32.53
2022-10-31T14:50:53.993Z,31.47
2022-10-31T14:53:26.779Z,31.73
2022-10-31T14:55:56.099Z,34.40
2022-10-31T14:58:27.952Z,35.70
2022-10-31T15:00:57.988Z,32.57
2022-10-31T15:03:44.448Z,38.57
2022-10-31T15:06:22.561Z,36.27
2022-10-31T15:08:55.574Z,45.37
2022-10-31T15:11:28.467Z,34.97
2022-10-31T15:13:57.487Z,39.33
2022-10-31T15:19:08.064Z,54.00
2022-10-31T15:21:37.109Z,56.17
2022-10-31T15:24:04.309Z,35.73
2022-10-31T15:26:36.371Z,43.20
2022-10-31T15:29:15.404Z,41.50
2022-10-31T15:32:11.856Z,42.53
2022-10-31T15:34:43.996Z,45.30
2022-10-31T15:37:13.876Z,45.50
2022-10-31T15:39:41.076Z,46.57
2022-10-31T15:42:28.053Z,45.07
2022-10-31T15:45:05.104Z,47.37
2022-10-31T15:47:33.384Z,41.97
2022-10-31T15:50:01.861Z,49.77
2022-10-31T15:52:45.371Z,45.27
2022-10-31T15:55:29.069Z,42.30
2022-10-31T15:58:03.032Z,52.80
2022-10-31T16:00:32.870Z,53.97
2022-10-31T16:03:26.506Z,52.63
2022-10-31T16:06:01.232Z,52.63
2022-10-31T16:08:31.070Z,58.67
2022-10-31T16:11:19.070Z,49.17
2022-10-31T16:14:02.921Z,49.93
2022-10-31T16:16:36.295Z,56.70
2022-10-31T16:19:06.752Z,57.40
2022-10-31T16:21:37.467Z,53.30
2022-10-31T16:24:29.219Z,50.90
2022-10-31T16:27:06.843Z,61.17
2022-10-31T16:29:44.463Z,65.23
2022-10-31T16:32:37.769Z,69.93
2022-10-31T16:35:10.555Z,66.60
2022-10-31T16:37:41.411Z,65.70
2022-10-31T16:40:14.272Z,64.83
2022-10-31T16:42:42.382Z,64.47
2022-10-31T16:45:22.304Z,66.50
2022-10-31T16:47:49.613Z,69.53
2022-10-31T16:50:27.812Z,75.57
2022-10-31T16:53:12.960Z,75.83
2022-10-31T16:55:48.320Z,71.03
2022-10-31T16:58:20.119Z,83.47
2022-10-31T17:00:47.116Z,70.70
2022-10-31T17:03:13.988Z,82.93
2022-10-31T17:05:41.310Z,72.13
2022-10-31T17:08:08.183Z,95.73
2022-10-31T17:10:35.938Z,71.30
2022-10-31T17:13:04.867Z,82.70
2022-10-31T17:15:42.068Z,80.20
2022-10-31T17:18:14.880Z,83.43
2022-10-31T17:20:43.176Z,68.27
2022-10-31T17:23:14.925Z,79.37
2022-10-31T17:25:42.791Z,82.17
2022-10-31T17:28:14.105Z,82.57
2022-10-31T17:30:42.991Z,84.40
2022-10-31T17:33:15.282Z,75.33
2022-10-31T17:35:43.242Z,78.30
2022-10-31T17:38:10.549Z,86.97
2022-10-31T17:40:39.471Z,80.43
2022-10-31T17:43:06.505Z,70.97
2022-10-31T17:45:33.310Z,90.33
2022-10-31T17:48:00.142Z,77.33
2022-10-31T17:50:27.572Z,83.57
2022-10-31T17:52:54.447Z,94.00
2022-10-31T17:55:21.306Z,92.60
2022-10-31T17:57:48.556Z,95.40
2022-10-31T18:00:18.307Z,96.70
2022-10-31T18:02:45.165Z,75.30
2022-10-31T18:05:12.248Z,74.60
2022-10-31T18:07:39.213Z,69.97
2022-10-31T18:10:06.524Z,77.10
2022-10-31T18:12:36.381Z,70.03
2022-10-31T18:15:03.311Z,85.10
2022-10-31T18:17:30.121Z,84.93
2022-10-31T18:19:56.938Z,83.10
2022-10-31T18:22:23.755Z,80.27
2022-10-31T18:24:50.566Z,71.17
2022-10-31T18:27:17.373Z,81.87
2022-10-31T18:29:44.159Z,91.10
2022-10-31T18:32:11.004Z,78.50
2022-10-31T18:34:37.847Z,65.73
2022-10-31T18:37:04.674Z,84.50
2022-10-31T18:39:31.627Z,74.00
2022-10-31T18:41:58.413Z,75.37
2022-10-31T18:44:25.831Z,83.43
2022-10-31T18:46:52.764Z,76.00
2022-10-31T18:49:22.660Z,79.07
2022-10-31T18:51:50.823Z,76.57
2022-10-31T18:54:18.112Z,67.47
2022-10-31T18:56:45.173Z,79.10
2022-10-31T18:59:13.024Z,80.07
2022-10-31T19:01:40.184Z,79.00
2022-10-31T19:04:07.366Z,81.63
2022-10-31T19:06:34.291Z,76.30
2022-10-31T19:09:06.566Z,83.13
2022-10-31T19:11:34.269Z,89.87
2022-10-31T19:14:01.450Z,88.10
2022-10-31T19:16:28.864Z,90.27
2022-10-31T19:18:57.182Z,78.37
2022-10-31T19:21:24.845Z,72.27
2022-10-31T19:23:53.517Z,72.93
2022-10-31T19:26:20.383Z,77.20
2022-10-31T19:28:47.231Z,96.47
2022-10-31T19:31:14.097Z,87.57
2022-10-31T19:33:40.957Z,78.27
2022-10-31T19:36:10.793Z,77.23
2022-10-31T19:38:40.180Z,75.20
2022-10-31T19:41:16.228Z,74.10
2022-10-31T19:43:43.497Z,79.17
2022-10-31T19:46:22.252Z,83.40
2022-10-31T19:48:59.865Z,71.60
2022-10-31T19:51:26.921Z,62.37
2022-10-31T19:53:54.479Z,61.00
2022-10-31T19:56:23.882Z,60.17
2022-10-31T19:58:50.786Z,54.03
2022-10-31T20:01:23.505Z,55.97
2022-10-31T20:03:51.470Z,58.60
2022-10-31T20:06:34.444Z,51.23
2022-10-31T20:09:03.781Z,64.13
2022-10-31T20:11:30.652Z,46.57
2022-10-31T20:13:59.026Z,48.33
2022-10-31T20:16:26.884Z,50.97
2022-10-31T20:18:54.666Z,46.90
2022-10-31T20:21:25.218Z,41.27
2022-10-31T20:23:57.255Z,51.00
2022-10-31T20:26:24.209Z,46.43
2022-10-31T20:28:51.497Z,49.23
2022-10-31T20:31:20.892Z,51.47
2022-10-31T20:33:48.848Z,47.67
2022-10-31T20:36:19.623Z,49.43
2022-10-31T20:38:46.791Z,41.07
2022-10-31T20:41:15.060Z,46.10
2022-10-31T20:43:42.215Z,46.23
2022-10-31T20:46:12.580Z,51.00
2022-10-31T20:48:39.664Z,47.07
2022-10-31T20:51:19.479Z,45.50
2022-10-31T20:53:46.373Z,51.07
2022-10-31T20:56:21.343Z,47.37
2022-10-31T20:58:49.081Z,40.77
2022-10-31T21:01:18.363Z,44.10
2022-10-31T21:03:46.016Z,54.63
2022-10-31T21:06:13.138Z,50.70
2022-10-31T21:08:40.300Z,48.60
2022-10-31T21:11:11.374Z,43.37
2022-10-31T21:13:40.840Z,48.00
2022-10-31T21:16:14.421Z,48.07
2022-10-31T21:18:42.870Z,49.17
2022-10-31T21:21:20.848Z,68.93
2022-10-31T21:23:47.996Z,47.07
2022-10-31T21:26:20.929Z,38.30
2022-10-31T21:28:49.106Z,53.67
2022-10-31T21:31:17.978Z,36.47
2022-10-31T21:33:45.659Z,50.40
2022-10-31T21:36:13.425Z,51.10
2022-10-31T21:38:40.353Z,48.50
2022-10-31T21:41:10.213Z,46.77
2022-10-31T21:43:38.675Z,52.80
2022-10-31T21:46:07.990Z,49.97
2022-10-31T21:48:39.154Z,48.17
2022-10-31T21:51:09.145Z,59.97
2022-10-31T21:53:55.374Z,46.67
2022-10-31T21:56:23.796Z,48.33
2022-10-31T21:58:51.404Z,50.70
2022-10-31T22:01:18.787Z,64.07
2022-10-31T22:03:45.713Z,51.60
2022-10-31T22:06:13.360Z,53.10
2022-10-31T22:08:40.884Z,50.83
2022-10-31T22:11:10.855Z,53.37
2022-10-31T22:13:37.647Z,56.83
2022-10-31T22:16:13.243Z,61.97
2022-10-31T22:18:42.372Z,53.73
2022-10-31T22:21:18.343Z,57.90
2022-10-31T22:24:02.037Z,56.67
2022-10-31T22:26:32.551Z,61.10
2022-10-31T22:29:00.775Z,51.10
2022-10-31T22:31:28.532Z,50.87
2022-10-31T22:33:56.370Z,56.50
2022-10-31T22:36:28.410Z,52.10
2022-10-31T22:38:55.769Z,49.90
2022-10-31T22:41:25.210Z,58.53
2022-10-31T22:43:53.289Z,59.17
2022-10-31T22:46:24.218Z,62.87
2022-10-31T22:48:57.394Z,55.03
2022-10-31T22:51:26.611Z,48.43
2022-10-31T22:53:56.640Z,55.67
2022-10-31T22:56:25.791Z,57.87
2022-10-31T22:58:53.362Z,64.23
2022-10-31T23:01:22.635Z,57.23
2022-10-31T23:03:50.504Z,54.90
2022-10-31T23:06:21.007Z,65.33
2022-10-31T23:08:48.903Z,58.83
2022-10-31T23:11:23.320Z,56.53
2022-10-31T23:14:13.787Z,57.43
2022-10-31T23:16:48.074Z,63.07
2022-10-31T23:19:18.775Z,47.80
2022-10-31T23:21:57.327Z,47.47
2022-10-31T23:24:35.675Z,79.53
2022-10-31T23:27:10.468Z,50.07
2022-10-31T23:29:55.370Z,51.17
2022-10-31T23:32:26.777Z,47.97
2022-10-31T23:35:14.885Z,47.97
2022-10-31T23:37:41.634Z,48.33
2022-10-31T23:40:08.864Z,39.03
2022-10-31T23:42:35.854Z,47.00
2022-10-31T23:45:02.757Z,45.73
2022-10-31T23:47:29.530Z,49.97
2022-10-31T23:49:56.314Z,48.03
2022-10-31T23:52:23.067Z,40.23
2022-10-31T23:54:49.861Z,39.87
2022-10-31T23:57:17.206Z,48.53
2022-10-31T23:59:44.160Z,41.30
